createdAt,value
2018-12-24T00:00:52.516Z,101514.44
2018-12-24T00:01:54.760Z,101518.72
2018-12-24T00:02:56.932Z,101513.14
2018-12-24T00:03:59.173Z,101519.27
2018-12-24T00:05:01.361Z,101528.37
2018-12-24T00:06:03.608Z,101527.82
2018-12-24T00:07:05.768Z,101531.72
2018-12-24T00:08:07.932Z,101533.02
2018-12-24T00:09:10.097Z,101528.74
2018-12-24T00:10:12.296Z,101532.64
2018-12-24T00:11:14.518Z,101538.22
2018-12-24T00:12:16.908Z,101535.63
2018-12-24T00:13:19.456Z,101534.70
2018-12-24T00:14:21.637Z,101539.69
2018-12-24T00:15:23.827Z,101540.45
2018-12-24T00:16:25.997Z,101540.45
2018-12-24T00:17:28.280Z,101542.30
2018-12-24T00:18:30.551Z,101544.34
2018-12-24T00:19:32.920Z,101548.80
2018-12-24T00:20:35.503Z,101559.20
2018-12-24T00:21:38.382Z,101556.59
2018-12-24T00:22:40.747Z,101561.05
2018-12-24T00:23:42.926Z,101561.25
2018-12-24T00:24:47.787Z,101565.70
2018-12-24T00:25:51.693Z,101567.92
2018-12-24T00:26:53.924Z,101567.55
2018-12-24T00:27:56.328Z,101574.05
2018-12-24T00:28:58.509Z,101573.88
2018-12-24T00:30:01.515Z,101579.63
2018-12-24T00:31:03.722Z,101580.55
2018-12-24T00:32:05.986Z,101582.40
2018-12-24T00:33:08.148Z,101576.10
2018-12-24T00:34:10.295Z,101587.05
2018-12-24T00:35:12.746Z,101582.59
2018-12-24T00:36:14.918Z,101589.28
2018-12-24T00:37:17.143Z,101588.35
2018-12-24T00:38:19.311Z,101593.17
2018-12-24T00:39:21.685Z,101594.10
2018-12-24T00:40:24.021Z,101594.48
2018-12-24T00:41:26.301Z,101598.20
2018-12-24T00:42:29.672Z,101604.88
2018-12-24T00:43:32.012Z,101604.50
2018-12-24T00:44:34.257Z,101603.20
2018-12-24T00:45:36.413Z,101608.78
2018-12-24T00:46:38.603Z,101605.26
2018-12-24T00:47:40.759Z,101612.69
2018-12-24T00:48:43.004Z,101613.61
2018-12-24T00:49:45.162Z,101616.58
2018-12-24T00:50:47.317Z,101609.53
2018-12-24T00:51:49.511Z,101612.30
2018-12-24T00:52:51.663Z,101615.83
2018-12-24T00:53:53.861Z,101616.58
2018-12-24T00:54:56.031Z,101615.66
2018-12-24T00:55:58.173Z,101624.77
2018-12-24T00:57:00.370Z,101616.03
2018-12-24T00:58:02.608Z,101620.86
2018-12-24T00:59:04.821Z,101618.26
2018-12-24T01:00:06.997Z,101619.01
2018-12-24T01:01:09.232Z,101619.01
2018-12-24T01:02:11.411Z,101617.71
2018-12-24T01:03:13.681Z,101617.71
2018-12-24T01:04:15.909Z,101620.69
2018-12-24T01:05:18.065Z,101621.06
2018-12-24T01:06:20.223Z,101620.31
2018-12-24T01:07:22.425Z,101627.56
2018-12-24T01:08:24.744Z,101622.73
2018-12-24T01:09:26.937Z,101629.23
2018-12-24T01:10:29.095Z,101627.94
2018-12-24T01:11:31.271Z,101625.34
2018-12-24T01:12:33.463Z,101631.09
2018-12-24T01:13:35.613Z,101628.11
2018-12-24T01:14:37.774Z,101632.77
2018-12-24T01:15:39.919Z,101635.54
2018-12-24T01:16:42.093Z,101642.41
2018-12-24T01:17:44.337Z,101637.97
2018-12-24T01:18:46.573Z,101643.72
2018-12-24T01:19:48.727Z,101634.61
2018-12-24T01:20:50.891Z,101647.62
2018-12-24T01:21:53.090Z,101643.34
2018-12-24T01:22:55.311Z,101650.77
2018-12-24T01:23:57.471Z,101648.92
2018-12-24T01:24:59.687Z,101651.89
2018-12-24T01:26:01.866Z,101655.80
2018-12-24T01:27:04.102Z,101655.80
2018-12-24T01:28:10.163Z,101661.92
2018-12-24T01:29:12.394Z,101664.52
2018-12-24T01:30:14.563Z,101667.13
2018-12-24T01:31:16.737Z,101666.20
2018-12-24T01:32:18.902Z,101665.82
2018-12-24T01:33:21.089Z,101669.17
2018-12-24T01:34:23.251Z,101671.77
2018-12-24T01:35:25.397Z,101672.15
2018-12-24T01:36:27.547Z,101672.52
2018-12-24T01:37:29.707Z,101676.42
2018-12-24T01:38:31.887Z,101682.17
2018-12-24T01:39:34.032Z,101679.95
2018-12-24T01:40:36.214Z,101682.55
2018-12-24T01:42:08.083Z,101684.92
2018-12-24T01:43:10.027Z,101688.30
2018-12-24T01:44:13.439Z,101697.41
2018-12-24T01:45:17.857Z,101691.28
2018-12-24T01:46:19.798Z,101692.20
2018-12-24T01:47:21.752Z,101700.38
2018-12-24T01:48:23.697Z,101702.23
2018-12-24T01:49:25.663Z,101702.61
2018-12-24T01:50:27.637Z,101710.41
2018-12-24T01:51:29.656Z,101703.36
2018-12-24T01:52:31.597Z,101709.11
2018-12-24T01:53:33.543Z,101711.33
2018-12-24T01:54:35.509Z,101718.20
2018-12-24T01:55:37.509Z,101719.88
2018-12-24T01:56:39.466Z,101718.58
2018-12-24T01:57:41.475Z,101729.53
2018-12-24T01:58:43.427Z,101725.64
2018-12-24T01:59:45.451Z,101731.21
2018-12-24T02:00:47.393Z,101731.59
2018-12-24T02:01:49.342Z,101732.14
2018-12-24T02:02:51.359Z,101734.73
2018-12-24T02:03:53.287Z,101736.04
2018-12-24T02:04:55.279Z,101735.48
2018-12-24T02:05:57.287Z,101739.77
2018-12-24T02:06:59.239Z,101740.69
2018-12-24T02:08:01.173Z,101744.22
2018-12-24T02:09:04.437Z,101743.66
2018-12-24T02:10:06.398Z,101739.39
2018-12-24T02:11:08.421Z,101736.79
2018-12-24T02:12:10.353Z,101741.98
2018-12-24T02:13:12.289Z,101743.29
2018-12-24T02:14:14.306Z,101743.11
2018-12-24T02:15:16.263Z,101743.48
2018-12-24T02:16:18.213Z,101744.03
2018-12-24T02:17:20.227Z,101746.09
2018-12-24T02:18:22.174Z,101744.03
2018-12-24T02:19:24.125Z,101749.23
2018-12-24T02:20:26.158Z,101750.91
2018-12-24T02:21:28.181Z,101749.61
2018-12-24T02:22:30.119Z,101757.42
2018-12-24T02:23:32.067Z,101760.94
2018-12-24T02:24:34.074Z,101761.31
2018-12-24T02:25:36.123Z,101762.99
2018-12-24T02:26:38.073Z,101763.17
2018-12-24T02:27:40.006Z,101762.24
2018-12-24T02:28:41.964Z,101762.62
2018-12-24T02:29:43.920Z,101761.31
2018-12-24T02:30:49.426Z,101762.24
2018-12-24T02:31:51.426Z,101761.69
2018-12-24T02:32:53.395Z,101765.59
2018-12-24T02:33:55.340Z,101766.89
2018-12-24T02:34:57.342Z,101768.56
2018-12-24T02:35:59.328Z,101767.82
2018-12-24T02:37:01.349Z,101773.39
2018-12-24T02:38:03.356Z,101778.97
2018-12-24T02:39:05.324Z,101782.50
2018-12-24T02:40:07.334Z,101786.02
2018-12-24T02:41:09.366Z,101787.33
2018-12-24T02:42:11.353Z,101793.83
2018-12-24T02:43:13.373Z,101791.59
2018-12-24T02:44:15.380Z,101792.90
2018-12-24T02:45:17.329Z,101796.80
2018-12-24T02:46:19.385Z,101798.47
2018-12-24T02:47:21.322Z,101798.09
2018-12-24T02:48:23.350Z,101802.38
2018-12-24T02:49:25.286Z,101800.70
2018-12-24T02:50:27.252Z,101801.62
2018-12-24T02:51:29.261Z,101804.97
2018-12-24T02:52:31.207Z,101798.81
2018-12-24T02:53:33.215Z,101804.97
2018-12-24T02:54:35.181Z,101803.30
2018-12-24T02:55:37.198Z,101803.67
2018-12-24T02:56:39.232Z,101807.91
2018-12-24T02:57:41.174Z,101804.60
2018-12-24T02:58:43.134Z,101812.78
2018-12-24T02:59:45.152Z,101812.41
2018-12-24T03:00:47.096Z,101815.00
2018-12-24T03:01:49.074Z,101810.17
2018-12-24T03:02:51.102Z,101815.38
2018-12-24T03:03:53.040Z,101817.23
2018-12-24T03:04:55.000Z,101812.41
2018-12-24T03:05:56.941Z,101818.53
2018-12-24T03:06:59.003Z,101818.53
2018-12-24T03:08:01.006Z,101821.88
2018-12-24T03:09:04.577Z,101822.06
2018-12-24T03:10:07.807Z,101822.80
2018-12-24T03:11:09.779Z,101822.43
2018-12-24T03:12:11.815Z,101822.22
2018-12-24T03:13:13.762Z,101820.58
2018-12-24T03:14:17.876Z,101828.00
2018-12-24T03:15:22.340Z,101824.48
2018-12-24T03:16:24.280Z,101828.38
2018-12-24T03:17:26.276Z,101834.88
2018-12-24T03:18:28.294Z,101835.22
2018-12-24T03:19:30.294Z,101835.22
2018-12-24T03:20:32.233Z,101833.92
2018-12-24T03:21:34.246Z,101830.98
2018-12-24T03:22:36.217Z,101831.91
2018-12-24T03:23:38.148Z,101830.02
2018-12-24T03:24:40.095Z,101827.80
2018-12-24T03:25:42.121Z,101832.99
2018-12-24T03:26:44.115Z,101829.09
2018-12-24T03:27:46.106Z,101833.37
2018-12-24T03:28:48.126Z,101833.37
2018-12-24T03:29:50.048Z,101838.56
2018-12-24T03:30:51.995Z,101838.56
2018-12-24T03:31:54.021Z,101841.17
2018-12-24T03:32:56.066Z,101840.24
2018-12-24T03:33:58.083Z,101842.09
2018-12-24T03:35:00.084Z,101844.70
2018-12-24T03:36:02.153Z,101848.59
2018-12-24T03:37:04.095Z,101841.17
2018-12-24T03:38:06.048Z,101851.95
2018-12-24T03:39:08.083Z,101846.74
2018-12-24T03:40:10.099Z,101842.29
2018-12-24T03:41:12.035Z,101852.32
2018-12-24T03:42:13.976Z,101850.64
2018-12-24T03:43:17.604Z,101851.02
2018-12-24T03:44:19.546Z,101850.09
2018-12-24T03:45:21.501Z,101850.47
2018-12-24T03:46:23.453Z,101853.06
2018-12-24T03:47:25.613Z,101860.49
2018-12-24T03:48:27.576Z,101864.39
2018-12-24T03:49:29.516Z,101868.30
2018-12-24T03:50:31.463Z,101870.89
2018-12-24T03:51:33.462Z,101869.05
2018-12-24T03:52:35.398Z,101873.87
2018-12-24T03:53:37.354Z,101875.55
2018-12-24T03:54:39.302Z,101878.14
2018-12-24T03:55:41.260Z,101879.44
2018-12-24T03:56:43.227Z,101880.74
2018-12-24T03:57:45.247Z,101884.09
2018-12-24T03:58:47.217Z,101885.02
2018-12-24T03:59:49.187Z,101885.95
2018-12-24T04:00:51.220Z,101890.22
2018-12-24T04:01:53.236Z,101893.19
2018-12-24T04:02:55.254Z,101900.99
2018-12-24T04:03:57.189Z,101898.77
2018-12-24T04:04:59.147Z,101900.63
2018-12-24T04:06:01.090Z,101902.67
2018-12-24T04:07:03.019Z,101907.87
2018-12-24T04:08:04.971Z,101897.84
2018-12-24T04:09:06.957Z,101910.47
2018-12-24T04:10:09.019Z,101910.09
2018-12-24T04:11:11.123Z,101914.37
2018-12-24T04:12:13.052Z,101911.39
2018-12-24T04:13:22.330Z,101916.97
2018-12-24T04:14:18.853Z,101914.37
2018-12-24T04:15:20.790Z,101915.11
2018-12-24T04:16:23.061Z,101920.50
2018-12-24T04:17:25.015Z,101913.44
2018-12-24T04:18:27.025Z,101916.97
2018-12-24T04:19:28.988Z,101921.24
2018-12-24T04:20:31.007Z,101920.88
2018-12-24T04:21:32.941Z,101921.62
2018-12-24T04:22:34.892Z,101920.88
2018-12-24T04:23:36.830Z,101922.55
2018-12-24T04:24:38.799Z,101928.30
2018-12-24T04:25:42.472Z,101935.55
2018-12-24T04:26:44.413Z,101945.57
2018-12-24T04:27:46.369Z,101944.27
2018-12-24T04:28:48.387Z,101948.17
2018-12-24T04:29:50.361Z,101942.05
2018-12-24T04:30:52.331Z,101939.81
2018-12-24T04:31:54.281Z,101939.45
2018-12-24T04:32:56.217Z,101936.84
2018-12-24T04:33:59.150Z,101938.14
2018-12-24T04:35:01.124Z,101944.64
2018-12-24T04:36:03.145Z,101941.12
2018-12-24T04:37:05.085Z,101948.17
2018-12-24T04:38:07.025Z,101955.42
2018-12-24T04:39:08.963Z,101955.42
2018-12-24T04:40:10.963Z,101959.32
2018-12-24T04:41:15.084Z,101959.32
2018-12-24T04:42:17.111Z,101961.17
2018-12-24T04:43:19.062Z,101968.98
2018-12-24T04:44:21.027Z,101965.82
2018-12-24T04:45:23.075Z,101969.72
2018-12-24T04:46:25.016Z,101968.60
2018-12-24T04:47:26.967Z,101968.60
2018-12-24T04:48:28.925Z,101978.63
2018-12-24T04:49:30.938Z,101984.20
2018-12-24T04:50:32.906Z,101979.37
2018-12-24T04:51:34.931Z,101988.11
2018-12-24T04:52:36.885Z,101992.38
2018-12-24T04:53:38.909Z,101995.91
2018-12-24T04:54:40.929Z,101997.21
2018-12-24T04:55:42.971Z,101996.47
2018-12-24T04:56:44.903Z,102002.78
2018-12-24T04:57:46.855Z,102008.91
2018-12-24T04:58:48.927Z,102002.41
2018-12-24T04:59:50.910Z,102011.70
2018-12-24T05:00:52.887Z,102015.97
2018-12-24T05:01:54.830Z,102017.64
2018-12-24T05:02:57.961Z,102024.14
2018-12-24T05:03:59.984Z,102018.94
2018-12-24T05:05:01.987Z,102024.52
2018-12-24T05:06:04.060Z,102030.64
2018-12-24T05:07:05.997Z,102026.74
2018-12-24T05:08:07.955Z,102028.97
2018-12-24T05:09:09.975Z,102031.20
2018-12-24T05:10:11.991Z,102032.31
2018-12-24T05:11:13.966Z,102031.95
2018-12-24T05:12:15.921Z,102038.45
2018-12-24T05:13:17.879Z,102040.67
2018-12-24T05:14:19.890Z,102035.84
2018-12-24T05:15:21.836Z,102036.41
2018-12-24T05:16:23.803Z,102042.91
2018-12-24T05:17:25.745Z,102041.05
2018-12-24T05:18:27.696Z,102043.27
2018-12-24T05:19:29.709Z,102042.91
2018-12-24T05:20:31.653Z,102043.46
2018-12-24T05:21:33.613Z,102047.17
2018-12-24T05:22:35.562Z,102049.03
2018-12-24T05:23:37.503Z,102052.94
2018-12-24T05:24:39.437Z,102051.63
2018-12-24T05:25:41.380Z,102055.16
2018-12-24T05:26:43.341Z,102055.16
2018-12-24T05:27:45.285Z,102057.77
2018-12-24T05:28:47.236Z,102059.06
2018-12-24T05:29:49.226Z,102055.91
2018-12-24T05:30:51.224Z,102057.77
2018-12-24T05:31:53.196Z,102056.46
2018-12-24T05:32:55.235Z,102064.64
2018-12-24T05:33:57.176Z,102062.97
2018-12-24T05:34:59.127Z,102062.97
2018-12-24T05:36:01.128Z,102062.97
2018-12-24T05:37:03.110Z,102060.36
2018-12-24T05:38:05.114Z,102062.41
2018-12-24T05:39:07.054Z,102064.64
2018-12-24T05:40:08.996Z,102062.03
2018-12-24T05:41:10.930Z,102062.97
2018-12-24T05:42:14.288Z,102067.23
2018-12-24T05:43:16.260Z,102072.06
2018-12-24T05:44:18.241Z,102066.86
2018-12-24T05:45:20.180Z,102078.20
2018-12-24T05:46:22.119Z,102065.38
2018-12-24T05:47:24.092Z,102075.59
2018-12-24T05:48:26.054Z,102083.39
2018-12-24T05:49:28.006Z,102088.23
2018-12-24T05:50:30.004Z,102091.76
2018-12-24T05:51:31.970Z,102096.59
2018-12-24T05:52:33.956Z,102096.41
2018-12-24T05:53:35.893Z,102096.41
2018-12-24T05:54:37.906Z,102100.67
2018-12-24T05:55:39.843Z,102101.23
2018-12-24T05:56:41.800Z,102107.73
2018-12-24T05:57:43.875Z,102101.79
2018-12-24T05:58:45.879Z,102111.27
2018-12-24T05:59:47.816Z,102106.44
2018-12-24T06:00:49.850Z,102113.49
2018-12-24T06:01:51.783Z,102111.86
2018-12-24T06:02:53.762Z,102113.71
2018-12-24T06:03:55.712Z,102116.31
2018-12-24T06:04:57.651Z,102123.74
2018-12-24T06:05:59.589Z,102122.63
2018-12-24T06:07:01.536Z,102129.13
2018-12-24T06:08:03.502Z,102128.76
2018-12-24T06:09:05.459Z,102134.33
2018-12-24T06:10:07.510Z,102137.86
2018-12-24T06:11:09.505Z,102152.73
2018-12-24T06:12:11.447Z,102156.26
2018-12-24T06:13:13.412Z,102156.26
2018-12-24T06:14:15.342Z,102158.67
2018-12-24T06:15:17.321Z,102165.55
2018-12-24T06:16:19.251Z,102169.27
2018-12-24T06:17:21.193Z,102175.20
2018-12-24T06:18:23.179Z,102174.12
2018-12-24T06:19:25.127Z,102180.97
2018-12-24T06:20:27.151Z,102177.06
2018-12-24T06:21:29.093Z,102180.04
2018-12-24T06:22:31.037Z,102177.66
2018-12-24T06:23:33.251Z,102181.56
2018-12-24T06:24:35.261Z,102184.72
2018-12-24T06:25:37.216Z,102186.02
2018-12-24T06:26:39.147Z,102188.99
2018-12-24T06:27:41.080Z,102186.58
2018-12-24T06:28:43.242Z,102191.45
2018-12-24T06:29:45.273Z,102193.08
2018-12-24T06:30:47.218Z,102197.95
2018-12-24T06:31:49.233Z,102198.51
2018-12-24T06:32:51.168Z,102200.73
2018-12-24T06:33:53.162Z,102204.64
2018-12-24T06:34:55.113Z,102206.50
2018-12-24T06:35:57.047Z,102212.45
2018-12-24T06:36:59.004Z,102216.34
2018-12-24T06:38:00.949Z,102219.14
2018-12-24T06:39:03.188Z,102222.67
2018-12-24T06:40:05.138Z,102224.34
2018-12-24T06:41:07.157Z,102233.08
2018-12-24T06:42:09.281Z,102230.10
2018-12-24T06:43:11.419Z,102230.84
2018-12-24T06:44:13.415Z,102227.50
2018-12-24T06:45:15.354Z,102234.19
2018-12-24T06:46:17.312Z,102227.50
2018-12-24T06:47:21.715Z,102227.69
2018-12-24T06:48:23.656Z,102223.22
2018-12-24T06:49:25.613Z,102226.02
2018-12-24T06:50:27.565Z,102224.53
2018-12-24T06:51:29.569Z,102228.06
2018-12-24T06:52:31.498Z,102231.03
2018-12-24T06:53:33.423Z,102230.66
2018-12-24T06:54:35.694Z,102230.66
2018-12-24T06:55:37.643Z,102233.63
2018-12-24T06:56:39.814Z,102233.82
2018-12-24T06:57:43.961Z,102233.26
2018-12-24T06:58:45.913Z,102229.36
2018-12-24T06:59:47.873Z,102228.80
2018-12-24T07:00:49.813Z,102231.77
2018-12-24T07:01:51.770Z,102236.98
2018-12-24T07:02:53.763Z,102239.95
2018-12-24T07:03:56.005Z,102231.59
2018-12-24T07:04:57.953Z,102236.78
2018-12-24T07:06:03.263Z,102237.16
2018-12-24T07:07:05.206Z,102234.55
2018-12-24T07:08:07.232Z,102237.90
2018-12-24T07:09:09.188Z,102239.76
2018-12-24T07:10:11.142Z,102250.17
2018-12-24T07:11:13.082Z,102249.23
2018-12-24T07:12:15.029Z,102251.09
2018-12-24T07:13:16.984Z,102259.83
2018-12-24T07:14:19.086Z,102260.57
2018-12-24T07:15:21.124Z,102258.71
2018-12-24T07:16:23.050Z,102264.47
2018-12-24T07:17:24.995Z,102265.59
2018-12-24T07:18:26.938Z,102265.92
2018-12-24T07:19:28.944Z,102269.48
2018-12-24T07:20:30.936Z,102270.79
2018-12-24T07:21:32.932Z,102267.96
2018-12-24T07:22:34.938Z,102275.39
2018-12-24T07:23:36.916Z,102272.80
2018-12-24T07:24:38.862Z,102281.19
2018-12-24T07:25:40.846Z,102277.06
2018-12-24T07:26:42.783Z,102275.20
2018-12-24T07:27:44.798Z,102278.73
2018-12-24T07:28:46.742Z,102283.02
2018-12-24T07:29:48.766Z,102287.84
2018-12-24T07:30:50.830Z,102287.62
2018-12-24T07:31:52.803Z,102284.88
2018-12-24T07:32:54.789Z,102287.28
2018-12-24T07:33:56.730Z,102285.39
2018-12-24T07:34:58.763Z,102289.66
2018-12-24T07:36:00.742Z,102296.53
2018-12-24T07:37:05.262Z,102290.59
2018-12-24T07:38:07.210Z,102293.38
2018-12-24T07:39:09.163Z,102298.02
2018-12-24T07:40:11.102Z,102293.94
2018-12-24T07:41:13.080Z,102296.53
2018-12-24T07:42:15.019Z,102293.94
2018-12-24T07:43:16.979Z,102294.86
2018-12-24T07:44:24.153Z,102296.91
2018-12-24T07:45:22.649Z,102298.94
2018-12-24T07:46:24.730Z,102303.78
2018-12-24T07:47:26.744Z,102309.54
2018-12-24T07:48:30.835Z,102312.51
2018-12-24T07:49:32.846Z,102311.58
2018-12-24T07:50:36.613Z,102316.04
2018-12-24T07:51:38.664Z,102319.02
2018-12-24T07:52:40.671Z,102317.15
2018-12-24T07:53:42.614Z,102318.08
2018-12-24T07:54:44.569Z,102325.14
2018-12-24T07:55:46.575Z,102324.77
2018-12-24T07:56:48.556Z,102322.91
2018-12-24T07:57:50.501Z,102323.66
2018-12-24T07:58:52.435Z,102326.26
2018-12-24T07:59:56.774Z,102334.43
2018-12-24T08:00:58.776Z,102330.72
2018-12-24T08:02:00.791Z,102322.91
2018-12-24T08:03:02.742Z,102319.75
2018-12-24T08:04:04.768Z,102320.69
2018-12-24T08:05:14.877Z,102321.42
2018-12-24T08:06:16.826Z,102319.38
2018-12-24T08:07:18.827Z,102319.93
2018-12-24T08:08:20.783Z,102324.02
2018-12-24T08:09:22.798Z,102321.98
2018-12-24T08:10:24.744Z,102320.30
2018-12-24T08:11:26.722Z,102318.63
2018-12-24T08:12:28.692Z,102330.34
2018-12-24T08:13:30.725Z,102318.63
2018-12-24T08:14:33.466Z,102329.41
2018-12-24T08:15:37.316Z,102324.20
2018-12-24T08:16:39.264Z,102325.14
2018-12-24T08:17:41.244Z,102324.20
2018-12-24T08:18:43.362Z,102326.80
2018-12-24T08:19:45.362Z,102337.21
2018-12-24T08:20:47.530Z,102336.66
2018-12-24T08:21:49.674Z,102335.91
2018-12-24T08:22:51.751Z,102341.30
2018-12-24T08:23:55.018Z,102340.74
2018-12-24T08:24:56.986Z,102340.00
2018-12-24T08:25:58.950Z,102342.41
2018-12-24T08:27:00.915Z,102343.34
2018-12-24T08:28:02.961Z,102342.41
2018-12-24T08:29:04.908Z,102339.81
2018-12-24T08:30:06.854Z,102339.44
2018-12-24T08:31:08.802Z,102347.80
2018-12-24T08:32:11.601Z,102343.71
2018-12-24T08:33:15.679Z,102347.44
2018-12-24T08:34:17.375Z,102348.36
2018-12-24T08:35:20.602Z,102346.13
2018-12-24T08:36:22.554Z,102348.73
2018-12-24T08:37:27.365Z,102348.55
2018-12-24T08:38:29.359Z,102346.50
2018-12-24T08:39:31.379Z,102345.77
2018-12-24T08:40:33.342Z,102345.02
2018-12-24T08:41:35.290Z,102347.63
2018-12-24T08:42:37.250Z,102347.26
2018-12-24T08:43:39.228Z,102348.36
2018-12-24T08:44:41.909Z,102345.39
2018-12-24T08:45:44.182Z,102345.77
2018-12-24T08:46:46.117Z,102342.42
2018-12-24T08:47:49.332Z,102334.80
2018-12-24T08:48:51.291Z,102346.31
2018-12-24T08:49:53.241Z,102342.97
2018-12-24T08:50:55.254Z,102340.93
2018-12-24T08:51:57.197Z,102335.53
2018-12-24T08:52:59.223Z,102337.40
2018-12-24T08:54:01.275Z,102348.36
2018-12-24T08:55:03.285Z,102350.41
2018-12-24T08:56:05.234Z,102347.44
2018-12-24T08:57:07.176Z,102352.64
2018-12-24T08:58:09.219Z,102353.00
2018-12-24T08:59:11.252Z,102354.87
2018-12-24T09:00:13.199Z,102356.53
2018-12-24T09:01:15.161Z,102353.00
2018-12-24T09:02:17.185Z,102351.70
2018-12-24T09:03:19.132Z,102359.14
2018-12-24T09:04:21.181Z,102362.67
2018-12-24T09:05:23.142Z,102355.05
2018-12-24T09:06:25.094Z,102359.51
2018-12-24T09:07:27.114Z,102361.00
2018-12-24T09:08:29.093Z,102364.15
2018-12-24T09:09:31.067Z,102375.68
2018-12-24T09:10:33.007Z,102374.38
2018-12-24T09:11:35.046Z,102376.05
2018-12-24T09:12:37.015Z,102378.47
2018-12-24T09:13:38.981Z,102379.95
2018-12-24T09:14:41.041Z,102376.42
2018-12-24T09:15:42.992Z,102378.45
2018-12-24T09:16:46.820Z,102373.08
2018-12-24T09:17:48.767Z,102381.44
2018-12-24T09:18:50.789Z,102383.11
2018-12-24T09:19:52.783Z,102379.95
2018-12-24T09:20:54.736Z,102387.38
2018-12-24T09:21:56.783Z,102382.55
2018-12-24T09:22:58.725Z,102384.78
2018-12-24T09:24:00.754Z,102389.98
2018-12-24T09:25:02.800Z,102389.98
2018-12-24T09:26:04.760Z,102392.22
2018-12-24T09:27:06.727Z,102393.88
2018-12-24T09:28:08.730Z,102395.75
2018-12-24T09:29:10.682Z,102398.72
2018-12-24T09:30:12.738Z,102395.75
2018-12-24T09:31:14.676Z,102392.78
2018-12-24T09:32:16.630Z,102390.55
2018-12-24T09:33:18.598Z,102396.48
2018-12-24T09:34:20.562Z,102392.78
2018-12-24T09:35:22.536Z,102393.70
2018-12-24T09:36:24.600Z,102392.41
2018-12-24T09:37:26.538Z,102382.74
2018-12-24T09:38:28.496Z,102386.27
2018-12-24T09:39:30.704Z,102388.88
2018-12-24T09:40:35.274Z,102390.37
2018-12-24T09:41:37.230Z,102386.27
2018-12-24T09:42:39.186Z,102393.52
2018-12-24T09:43:41.138Z,102386.08
2018-12-24T09:44:43.082Z,102391.11
2018-12-24T09:45:45.052Z,102393.15
2018-12-24T09:46:47.009Z,102391.84
2018-12-24T09:47:49.298Z,102393.94
2018-12-24T09:48:51.280Z,102400.21
2018-12-24T09:49:53.476Z,102398.91
2018-12-24T09:50:56.155Z,102400.44
2018-12-24T09:51:58.109Z,102401.56
2018-12-24T09:53:00.152Z,102406.77
2018-12-24T09:54:02.089Z,102410.67
2018-12-24T09:55:04.033Z,102412.56
2018-12-24T09:56:06.137Z,102407.70
2018-12-24T09:57:08.111Z,102406.63
2018-12-24T09:58:10.157Z,102413.88
2018-12-24T09:59:12.114Z,102404.97
2018-12-24T10:00:17.961Z,102403.30
2018-12-24T10:01:20.025Z,102403.48
2018-12-24T10:02:22.058Z,102404.06
2018-12-24T10:03:24.081Z,102404.66
2018-12-24T10:04:32.822Z,102404.85
2018-12-24T10:05:35.348Z,102403.74
2018-12-24T10:06:37.431Z,102403.00
2018-12-24T10:07:40.545Z,102405.80
2018-12-24T10:08:42.612Z,102402.64
2018-12-24T10:09:44.616Z,102413.61
2018-12-24T10:10:46.566Z,102406.37
2018-12-24T10:11:48.605Z,102405.25
2018-12-24T10:12:50.550Z,102405.63
2018-12-24T10:13:52.522Z,102411.62
2018-12-24T10:14:54.481Z,102405.67
2018-12-24T10:15:56.507Z,102401.77
2018-12-24T10:17:00.639Z,102413.11
2018-12-24T10:18:02.155Z,102408.64
2018-12-24T10:19:04.106Z,102401.77
2018-12-24T10:20:06.136Z,102403.06
2018-12-24T10:21:08.163Z,102405.11
2018-12-24T10:22:10.135Z,102395.59
2018-12-24T10:23:12.079Z,102395.77
2018-12-24T10:24:14.320Z,102396.14
2018-12-24T10:25:16.281Z,102399.84
2018-12-24T10:26:18.228Z,102399.28
2018-12-24T10:27:22.319Z,102399.09
2018-12-24T10:28:24.359Z,102398.91
2018-12-24T10:29:26.312Z,102396.48
2018-12-24T10:30:28.251Z,102396.11
2018-12-24T10:31:30.199Z,102399.09
2018-12-24T10:32:32.250Z,102395.89
2018-12-24T10:33:34.801Z,102407.97
2018-12-24T10:34:36.806Z,102404.80
2018-12-24T10:35:39.777Z,102403.69
2018-12-24T10:36:41.870Z,102407.77
2018-12-24T10:37:43.949Z,102406.09
2018-12-24T10:38:45.914Z,102402.92
2018-12-24T10:39:47.863Z,102405.34
2018-12-24T10:40:49.868Z,102394.92
2018-12-24T10:41:51.885Z,102405.32
2018-12-24T10:42:53.853Z,102405.09
2018-12-24T10:43:56.995Z,102404.53
2018-12-24T10:44:59.013Z,102403.60
2018-12-24T10:46:00.944Z,102404.34
2018-12-24T10:47:02.886Z,102402.81
2018-12-24T10:48:06.821Z,102402.25
2018-12-24T10:49:08.513Z,102399.65
2018-12-24T10:50:10.546Z,102406.89
2018-12-24T10:51:12.521Z,102399.27
2018-12-24T10:52:14.463Z,102407.80
2018-12-24T10:53:16.479Z,102397.58
2018-12-24T10:54:18.496Z,102401.85
2018-12-24T10:55:22.992Z,102397.35
2018-12-24T10:56:24.941Z,102399.39
2018-12-24T10:57:26.921Z,102395.86
2018-12-24T10:58:28.990Z,102395.30
2018-12-24T10:59:31.079Z,102394.73
2018-12-24T11:00:33.075Z,102397.34
2018-12-24T11:01:35.035Z,102397.34
2018-12-24T11:02:37.046Z,102397.89
2018-12-24T11:03:39.089Z,102402.73
2018-12-24T11:04:42.323Z,102399.02
2018-12-24T11:05:44.357Z,102401.42
2018-12-24T11:06:46.421Z,102408.67
2018-12-24T11:07:48.392Z,102403.27
2018-12-24T11:08:52.099Z,102409.41
2018-12-24T11:09:54.206Z,102403.64
2018-12-24T11:10:56.151Z,102398.83
2018-12-24T11:11:58.093Z,102399.02
2018-12-24T11:13:00.128Z,102404.45
2018-12-24T11:14:02.166Z,102399.83
2018-12-24T11:15:04.112Z,102401.73
2018-12-24T11:16:06.041Z,102392.87
2018-12-24T11:17:09.655Z,102395.49
2018-12-24T11:18:11.613Z,102397.17
2018-12-24T11:19:13.599Z,102400.95
2018-12-24T11:20:18.786Z,102397.42
2018-12-24T11:21:20.751Z,102394.28
2018-12-24T11:22:22.777Z,102405.63
2018-12-24T11:23:24.735Z,102399.16
2018-12-24T11:24:26.789Z,102402.52
2018-12-24T11:25:28.749Z,102399.36
2018-12-24T11:26:30.754Z,102401.78
2018-12-24T11:27:32.717Z,102391.20
2018-12-24T11:28:34.763Z,102390.45
2018-12-24T11:29:36.804Z,102398.12
2018-12-24T11:30:38.869Z,102391.98
2018-12-24T11:31:40.808Z,102388.64
2018-12-24T11:32:42.745Z,102386.77
2018-12-24T11:33:44.742Z,102382.50
2018-12-24T11:34:46.713Z,102380.04
2018-12-24T11:35:48.669Z,102385.25
2018-12-24T11:36:50.657Z,102388.03
2018-12-24T11:37:52.679Z,102398.08
2018-12-24T11:38:54.746Z,102391.75
2018-12-24T11:39:56.793Z,102386.91
2018-12-24T11:40:58.735Z,102385.23
2018-12-24T11:42:00.677Z,102384.30
2018-12-24T11:43:02.690Z,102381.51
2018-12-24T11:44:04.706Z,102376.67
2018-12-24T11:45:06.733Z,102381.69
2018-12-24T11:46:08.769Z,102382.77
2018-12-24T11:47:10.729Z,102379.04
2018-12-24T11:48:12.798Z,102381.08
2018-12-24T11:49:14.740Z,102377.92
2018-12-24T11:50:16.727Z,102377.73